الصفحة الرئيسية
METAR-TAF:

METAR-TAF

مطار :

دار السلام, تنزانيا

مطار جوليوس نيريري

دائرة عرض: 06-52S, خط طول: 039-12E, ارتفاع: 55 متر

مراقبة الطقس الحالي

تاريخ ووقت الإصدار 1ساعة و 16 دقيقة قبل الساعة 10:00UTC
ريح 15 عقدة من الشمال
درجة الحرارة 31°درجة مئوية
الرطوبة 71%
ضغط 1010 hPa
الرؤية 10 كم أو أكثر
غيوم قليلة على ارتفاع 1900 قدم
غيوم مفككة على ارتفاع 2000 قدم

METAR: HTDA 171000Z 36015KT 9999 FEW019 BKN020 31/25 Q1010 NOSIG

زمن: 14:16 (11:16 UTC)

توقعات

تاريخ ووقت الإصدار 6ساعات و 16 دقيقة قبل الساعة 05:00UTC
التوقعات صالحة من17 الساعة 06 UTC إلى 18 الساعة 12 UTC
ريح 5 عقدة من الشمال
الرؤية: 8000 متر
غيوم مفككة على ارتفاع 1200 قدم
زخات من المطر
أصبح
من 17 الساعة 09 UTC إلى 17 الساعة 12 UTC
ريح 15 عقدة من الشمال/الشمال الغربي
الرؤية 10 كم أو أكثر
أصبح
من 17 الساعة 17 UTC إلى 17 الساعة 20 UTC
ريح 15 عقدة من الشمال/الشمال الشرقي
غيوم متفرقة على ارتفاع 1800 قدم

TAF: HTDA 170500Z 1706/1812 35005KT 8000 SHRA BKN012 BECMG 1709/1712 33015KT 9999 NSW BECMG 1717/1720 03015KT SCT018

أرصاد الطقس والتوقعات من أكثر من 4000 مطار (تقارير الطقس للمطار METAR والتنبؤ بالطقس بالمطارTAF).

المحطات المتاحة هي النقط الصفراء والحمراء على الخريطة.

حرك المؤشر فوق النقطة لمعرفة اسم المحطة.

ثم انقر لمعرفة أرصاد وتوقعات الطقس.

لتغيير الخارطة: اضغط على الأزرار الخضراء مع رمز الصليب الأسود للتكبير. على الزر الأخضر مع شرطة للتصغير، أو على الأسهم الخضراء للخرائط المجاورة.


METAR-TAF: